Terminal Aerodrome Forecast
Issued by NWS Louisville, KY

Home | Current Version | Previous Version | Text Only | Print | Product List | Glossary On
Versions: 1 2 3 4 5 6 7 8 9 10 11 12 13
000
FTUS43 KLMK 241722
TAFSDF
TAF
KSDF 241722Z 2418/2524 01005KT P6SM SCT060
     FM250000 VRB04KT P6SM FEW060
     FM251000 VRB03KT 5SM BR FEW050
     FM251400 VRB04KT P6SM SCT050=

USA.gov is the U.S. government's official web portal to all federal, state and local government web resources and services.